Hauptseite
METAR-TAF:

METAR-TAF

Flughäfen :

Flughafen Juba

Dschuba, Sudan

Breite: 04-52N, Länge: 031-36E, Höhe: 460 m

METAR: fehlend

Zeit: 14:06 (12:06 UTC)

Prognose

Neuester Wetterbericht von vor 26 Stunden und 6 Minuten, um 10:00 UTC
Gültige Prognose vom 16 um 12 UTC bis 17 um 18 UTC
Wind 4 kt aus unterschiedlichen Richtungen
Sichtweite 10 km oder mehr
Aufgelockert bewölkt in der Höhe von 4000 ft
Durchbrochene Bewölkung in der Höhe von 12000 ft
Wahrscheinlichkeit 30% :
Zeitweise
vom 16 um 15 UTC bis 16 um 21 UTC
Wind 5 kt aus Süd, Böen bis zu 15 kt
Sichtweite: 6000 m
Leicht bewölkt in der Höhe von 4000 ft, Kumulonimbus.
Durchbrochene Bewölkung in der Höhe von 12000 ft
Gewitter, Regen

TAF: HSSJ 161000Z 1612/1718 VRB04KT 9999 SCT040 BKN120 PROB30 TEMPO 1615/1621 18005G15KT 6000 TSRA FEW040CB BKN120

Wetterbeobachtungen und Prognosen von mehr als 4000 Flughäfen (METAR und TAF Bericht).

Die verfügbaren Stationen werden durch gelbe und rote Markierungen auf der Karte dargestellt.

Führen Sie die Maus auf sie, um den Namen der Station zu sehen.

Darauf klicken, um die Beobachtung von Wetterbeobachtungen und Prognosen zu sehen.

Um die Karte zu ändern : klicken Sie auf den grünen Tasten mit einem schwarzen Kreuz Zum Vergrößern, auf den grünen Button mit einem Gedankenstrich zu verkleinern, oder auf die grünen Pfeile für benachbarte Karten.


METAR-TAF: